createdAt,value
2022-09-23T00:00:47.579Z,6.77
2022-09-23T00:03:15.615Z,6.62
2022-09-23T00:05:42.910Z,6.65
2022-09-23T00:08:11.879Z,6.60
2022-09-23T00:10:40.259Z,6.63
2022-09-23T00:13:07.143Z,6.64
2022-09-23T00:15:39.938Z,6.61
2022-09-23T00:18:06.734Z,6.57
2022-09-23T00:20:34.999Z,6.59
2022-09-23T00:23:02.877Z,6.50
2022-09-23T00:25:29.760Z,6.24
2022-09-23T00:27:57.248Z,6.24
2022-09-23T00:30:24.178Z,6.38
2022-09-23T00:32:50.940Z,6.18
2022-09-23T00:35:17.722Z,6.25
2022-09-23T00:37:44.524Z,6.33
2022-09-23T00:40:11.494Z,6.14
2022-09-23T00:42:38.322Z,6.08
2022-09-23T00:45:05.389Z,6.21
2022-09-23T00:47:45.059Z,6.22
2022-09-23T00:50:21.089Z,6.21
2022-09-23T00:52:50.849Z,6.13
2022-09-23T00:55:42.453Z,6.02
2022-09-23T00:58:12.201Z,6.03
2022-09-23T01:00:39.164Z,6.02
2022-09-23T01:03:07.256Z,6.08
2022-09-23T01:05:34.463Z,6.03
2022-09-23T01:08:03.851Z,6.00
2022-09-23T01:10:40.643Z,5.93
2022-09-23T01:13:24.403Z,5.94
2022-09-23T01:16:14.426Z,5.95
2022-09-23T01:18:50.356Z,5.87
2022-09-23T01:22:13.811Z,5.85
2022-09-23T01:25:19.278Z,5.82
2022-09-23T01:28:15.186Z,5.76
2022-09-23T01:30:48.315Z,5.73
2022-09-23T01:33:42.566Z,5.69
2022-09-23T01:36:30.120Z,5.76
2022-09-23T01:39:35.057Z,5.64
2022-09-23T01:42:16.365Z,5.72
2022-09-23T01:44:49.943Z,5.71
2022-09-23T01:47:28.555Z,5.78
2022-09-23T01:50:08.838Z,5.74
2022-09-23T01:52:47.070Z,5.59
2022-09-23T01:55:22.537Z,5.54
2022-09-23T01:58:27.757Z,5.62
2022-09-23T02:01:03.561Z,5.71
2022-09-23T02:03:58.755Z,5.57
2022-09-23T02:06:55.878Z,5.65
2022-09-23T02:09:28.286Z,5.47
2022-09-23T02:12:00.546Z,5.47
2022-09-23T02:14:46.319Z,5.46
2022-09-23T02:17:23.107Z,5.44
2022-09-23T02:20:02.191Z,5.50
2022-09-23T02:23:07.608Z,5.46
2022-09-23T02:25:59.256Z,5.36
2022-09-23T02:28:49.829Z,5.29
2022-09-23T02:31:43.693Z,5.27
2022-09-23T02:34:39.439Z,5.27
2022-09-23T02:37:21.161Z,5.32
2022-09-23T02:40:02.970Z,5.26
2022-09-23T02:42:50.029Z,5.26
2022-09-23T02:45:18.578Z,5.23
2022-09-23T02:47:51.989Z,5.21
2022-09-23T02:50:19.381Z,5.36
2022-09-23T02:52:46.751Z,5.26
2022-09-23T02:55:17.881Z,5.22
2022-09-23T02:57:45.925Z,5.25
2022-09-23T03:00:13.396Z,5.24
2022-09-23T03:02:49.055Z,5.29
2022-09-23T03:05:25.081Z,5.21
2022-09-23T03:07:51.739Z,5.19
2022-09-23T03:10:48.713Z,5.17
2022-09-23T03:13:35.772Z,5.22
2022-09-23T03:16:11.311Z,5.08
2022-09-23T03:18:48.722Z,5.17
2022-09-23T03:21:31.911Z,5.12
2022-09-23T03:24:02.795Z,4.99
2022-09-23T03:26:36.294Z,4.96
2022-09-23T03:29:09.833Z,5.01
2022-09-23T03:31:38.307Z,5.00
2022-09-23T03:34:16.348Z,4.91
2022-09-23T03:37:03.284Z,4.93
2022-09-23T03:39:44.404Z,4.95
2022-09-23T03:42:17.192Z,4.90
2022-09-23T03:44:46.646Z,4.85
2022-09-23T03:47:15.429Z,4.96
2022-09-23T03:49:46.386Z,4.90
2022-09-23T03:52:13.156Z,4.95
2022-09-23T03:54:39.838Z,4.93
2022-09-23T03:57:06.948Z,4.93
2022-09-23T03:59:34.149Z,4.84
2022-09-23T04:02:01.284Z,4.87
2022-09-23T04:04:28.736Z,4.78
2022-09-23T04:06:56.551Z,4.90
2022-09-23T04:09:23.539Z,4.93
2022-09-23T04:11:54.097Z,4.82
2022-09-23T04:14:22.137Z,4.83
2022-09-23T04:16:50.205Z,4.77
2022-09-23T04:19:18.087Z,4.71
2022-09-23T04:21:45.608Z,4.66
2022-09-23T04:24:13.988Z,4.61
2022-09-23T04:26:41.726Z,4.70
2022-09-23T04:29:08.836Z,4.65
2022-09-23T04:31:35.721Z,4.75
2022-09-23T04:34:02.817Z,4.74
2022-09-23T04:36:29.732Z,4.65
2022-09-23T04:38:56.839Z,4.60
2022-09-23T04:41:23.721Z,4.59
2022-09-23T04:43:50.497Z,4.75
2022-09-23T04:46:17.389Z,4.68
2022-09-23T04:48:44.759Z,4.55
2022-09-23T04:51:19.272Z,4.44
2022-09-23T04:53:48.181Z,4.43
2022-09-23T04:56:17.778Z,4.44
2022-09-23T04:58:45.231Z,4.50
2022-09-23T05:01:14.461Z,4.41
2022-09-23T05:03:42.482Z,4.41
2022-09-23T05:06:10.720Z,4.39
2022-09-23T05:08:37.524Z,4.43
2022-09-23T05:11:05.294Z,4.49
2022-09-23T05:13:32.411Z,4.52
2022-09-23T05:16:00.374Z,4.60
2022-09-23T05:18:34.483Z,4.59
2022-09-23T05:21:02.126Z,4.64
2022-09-23T05:23:30.245Z,4.62
2022-09-23T05:25:59.639Z,4.72
2022-09-23T05:28:27.814Z,4.80
2022-09-23T05:31:00.993Z,4.80
2022-09-23T05:33:28.086Z,4.85
2022-09-23T05:35:54.823Z,4.90
2022-09-23T05:38:21.599Z,4.84
2022-09-23T05:40:58.454Z,4.91
2022-09-23T05:43:26.065Z,4.92
2022-09-23T05:46:03.022Z,4.99
2022-09-23T05:48:32.846Z,5.11
2022-09-23T05:51:00.742Z,5.17
2022-09-23T05:53:28.773Z,5.21
2022-09-23T05:55:58.677Z,5.27
2022-09-23T05:58:25.635Z,5.35
2022-09-23T06:00:52.622Z,5.43
2022-09-23T06:03:20.576Z,5.55
2022-09-23T06:05:47.806Z,5.64
2022-09-23T06:08:15.069Z,5.71
2022-09-23T06:10:44.339Z,5.78
2022-09-23T06:13:11.846Z,5.83
2022-09-23T06:15:39.607Z,5.90
2022-09-23T06:18:07.459Z,5.93
2022-09-23T06:20:34.704Z,5.99
2022-09-23T06:23:10.896Z,6.06
2022-09-23T06:25:38.411Z,6.11
2022-09-23T06:28:05.317Z,6.20
2022-09-23T06:30:32.179Z,6.27
2022-09-23T06:32:59.122Z,6.34
2022-09-23T06:35:27.839Z,6.48
2022-09-23T06:37:55.322Z,6.61
2022-09-23T06:40:23.838Z,6.74
2022-09-23T06:42:58.449Z,6.86
2022-09-23T06:45:25.992Z,6.92
2022-09-23T06:47:57.899Z,7.03
2022-09-23T06:50:27.919Z,7.14
2022-09-23T06:52:55.642Z,7.28
2022-09-23T06:55:26.640Z,7.45
2022-09-23T06:57:55.711Z,7.60
2022-09-23T07:00:22.546Z,7.77
2022-09-23T07:02:49.431Z,7.88
2022-09-23T07:05:16.889Z,8.03
2022-09-23T07:07:46.573Z,8.20
2022-09-23T07:10:13.350Z,8.33
2022-09-23T07:12:41.007Z,8.45
2022-09-23T07:15:08.789Z,8.58
2022-09-23T07:17:35.573Z,8.70
2022-09-23T07:20:02.950Z,8.75
2022-09-23T07:22:29.753Z,8.85
2022-09-23T07:24:56.516Z,8.97
2022-09-23T07:27:27.849Z,9.10
2022-09-23T07:29:54.674Z,9.23
2022-09-23T07:32:22.845Z,9.33
2022-09-23T07:34:50.226Z,9.48
2022-09-23T07:37:18.318Z,9.62
2022-09-23T07:39:45.779Z,9.76
2022-09-23T07:42:12.617Z,9.86
2022-09-23T07:44:40.425Z,9.96
2022-09-23T07:47:07.329Z,10.11
2022-09-23T07:49:35.597Z,10.22
2022-09-23T07:52:03.464Z,10.30
2022-09-23T07:54:30.224Z,10.42
2022-09-23T07:56:57.358Z,10.53
2022-09-23T07:59:24.256Z,10.61
2022-09-23T08:01:52.844Z,10.68
2022-09-23T08:04:24.118Z,10.82
2022-09-23T08:07:02.723Z,10.89
2022-09-23T08:09:33.562Z,10.93
2022-09-23T08:12:00.610Z,11.05
2022-09-23T08:14:27.407Z,11.12
2022-09-23T08:16:54.222Z,11.16
2022-09-23T08:19:21.092Z,11.22
2022-09-23T08:21:48.018Z,11.28
2022-09-23T08:24:18.151Z,11.39
2022-09-23T08:26:46.641Z,11.50
2022-09-23T08:29:16.255Z,11.59
2022-09-23T08:31:43.573Z,11.70
2022-09-23T08:34:11.021Z,11.81
2022-09-23T08:36:37.841Z,11.89
2022-09-23T08:39:06.165Z,11.94
2022-09-23T08:41:45.073Z,11.97
2022-09-23T08:44:28.133Z,12.05
2022-09-23T08:47:09.374Z,12.03
2022-09-23T08:49:58.591Z,12.09
2022-09-23T08:53:05.613Z,12.24
2022-09-23T08:55:59.765Z,12.33
2022-09-23T08:58:49.525Z,12.43
2022-09-23T09:01:34.427Z,12.45
2022-09-23T09:04:23.177Z,12.52
2022-09-23T09:07:34.782Z,12.58
2022-09-23T09:10:18.814Z,12.49
2022-09-23T09:12:49.172Z,12.46
2022-09-23T09:15:24.676Z,12.59
2022-09-23T09:18:13.165Z,12.70
2022-09-23T09:20:59.716Z,12.77
2022-09-23T09:23:29.286Z,12.84
2022-09-23T09:26:01.262Z,12.86
2022-09-23T09:28:37.456Z,12.88
2022-09-23T09:31:27.589Z,12.95
2022-09-23T09:34:11.179Z,12.99
2022-09-23T09:37:00.429Z,13.02
2022-09-23T09:39:29.079Z,13.05
2022-09-23T09:41:55.896Z,13.06
2022-09-23T09:44:44.338Z,13.09
2022-09-23T09:47:17.260Z,13.12
2022-09-23T09:49:54.058Z,13.09
2022-09-23T09:52:26.230Z,13.16
2022-09-23T09:54:53.182Z,13.24
2022-09-23T09:57:45.874Z,13.31
2022-09-23T10:00:21.816Z,13.35
2022-09-23T10:02:57.652Z,13.39
2022-09-23T10:05:31.914Z,13.38
2022-09-23T10:08:26.684Z,13.41
2022-09-23T10:10:59.639Z,13.44
2022-09-23T10:13:27.841Z,13.42
2022-09-23T10:15:55.469Z,13.43
2022-09-23T10:18:47.154Z,13.44
2022-09-23T10:21:17.102Z,13.47
2022-09-23T10:23:56.012Z,13.55
2022-09-23T10:26:34.051Z,13.57
2022-09-23T10:29:19.395Z,13.65
2022-09-23T10:31:46.225Z,13.68
2022-09-23T10:34:28.947Z,13.69
2022-09-23T10:37:03.488Z,13.65
2022-09-23T10:39:30.309Z,13.65
2022-09-23T10:42:15.657Z,13.70
2022-09-23T10:45:01.556Z,13.71
2022-09-23T10:47:51.125Z,13.69
2022-09-23T10:50:35.544Z,13.76
2022-09-23T10:53:23.988Z,13.75
2022-09-23T10:55:50.701Z,13.81
2022-09-23T10:58:17.328Z,13.79
2022-09-23T11:00:47.291Z,13.81
2022-09-23T11:03:50.388Z,13.82
2022-09-23T11:06:56.252Z,13.88
2022-09-23T11:09:41.492Z,13.98
2022-09-23T11:12:33.765Z,13.96
2022-09-23T11:15:06.226Z,13.93
2022-09-23T11:18:06.589Z,14.00
2022-09-23T11:20:39.631Z,14.00
2022-09-23T11:23:24.680Z,14.04
2022-09-23T11:26:10.607Z,14.07
2022-09-23T11:28:52.235Z,14.13
2022-09-23T11:31:43.217Z,14.14
2022-09-23T11:34:31.385Z,14.17
2022-09-23T11:37:08.456Z,14.21
2022-09-23T11:39:42.828Z,14.20
2022-09-23T11:42:20.180Z,14.22
2022-09-23T11:44:58.410Z,14.22
2022-09-23T11:47:39.738Z,14.26
2022-09-23T11:50:36.551Z,14.25
2022-09-23T11:53:20.360Z,14.27
2022-09-23T11:56:07.636Z,14.31
2022-09-23T11:58:51.118Z,14.34
2022-09-23T12:01:37.698Z,14.45
2022-09-23T12:04:17.791Z,14.39
2022-09-23T12:06:53.327Z,14.36
2022-09-23T12:09:57.865Z,14.39
2022-09-23T12:13:00.408Z,14.45
2022-09-23T12:15:56.178Z,14.38
2022-09-23T12:18:38.889Z,14.41
2022-09-23T12:21:32.788Z,14.43
2022-09-23T12:24:37.559Z,14.43
2022-09-23T12:27:09.201Z,14.42
2022-09-23T12:29:38.475Z,14.53
2022-09-23T12:32:05.485Z,14.65
2022-09-23T12:34:42.777Z,14.65
2022-09-23T12:37:09.911Z,14.60
2022-09-23T12:39:38.698Z,14.60
2022-09-23T12:42:15.502Z,14.61
2022-09-23T12:44:45.004Z,14.58
2022-09-23T12:47:14.493Z,14.61
2022-09-23T12:49:43.253Z,14.55
2022-09-23T12:52:13.592Z,14.50
2022-09-23T12:54:41.907Z,14.54
2022-09-23T12:57:34.912Z,14.56
2022-09-23T13:00:07.829Z,14.60
2022-09-23T13:02:39.072Z,14.59
2022-09-23T13:05:08.709Z,14.56
2022-09-23T13:07:40.849Z,14.61
2022-09-23T13:10:39.991Z,14.68
2022-09-23T13:13:18.213Z,14.72
2022-09-23T13:15:45.656Z,14.71
2022-09-23T13:18:21.610Z,14.70
2022-09-23T13:20:55.701Z,14.70
2022-09-23T13:23:27.980Z,14.67
2022-09-23T13:25:59.383Z,14.67
2022-09-23T13:28:32.193Z,14.67
2022-09-23T13:31:02.487Z,14.66
2022-09-23T13:33:51.785Z,14.67
2022-09-23T13:36:20.164Z,14.69
2022-09-23T13:38:47.060Z,14.70
2022-09-23T13:41:15.484Z,14.72
2022-09-23T13:43:49.703Z,14.74
2022-09-23T13:46:27.357Z,14.74
2022-09-23T13:48:55.620Z,14.74
2022-09-23T13:51:33.077Z,14.76
2022-09-23T13:54:03.410Z,14.74
2022-09-23T13:56:32.538Z,14.72
2022-09-23T13:59:31.835Z,14.73
2022-09-23T14:02:12.482Z,14.71
2022-09-23T14:04:39.872Z,14.77
2022-09-23T14:07:13.222Z,14.77
2022-09-23T14:09:45.192Z,14.75
2022-09-23T14:12:12.333Z,14.77
2022-09-23T14:14:41.066Z,14.77
2022-09-23T14:17:09.022Z,14.80
2022-09-23T14:19:37.086Z,14.79
2022-09-23T14:22:05.637Z,14.81
2022-09-23T14:24:36.794Z,14.82
2022-09-23T14:27:06.566Z,14.80
2022-09-23T14:29:37.061Z,14.82
2022-09-23T14:32:20.800Z,14.82
2022-09-23T14:35:06.176Z,14.81
2022-09-23T14:37:39.071Z,14.91
2022-09-23T14:40:12.472Z,14.88
2022-09-23T14:42:43.841Z,14.87
2022-09-23T14:45:16.033Z,14.88
2022-09-23T14:47:52.263Z,14.88
2022-09-23T14:50:25.594Z,14.91
2022-09-23T14:52:52.625Z,14.89
2022-09-23T14:55:19.546Z,14.88
2022-09-23T14:57:46.285Z,14.91
2022-09-23T15:00:17.515Z,14.88
2022-09-23T15:03:02.742Z,14.88
2022-09-23T15:05:45.838Z,14.87
2022-09-23T15:08:18.876Z,14.88
2022-09-23T15:10:46.251Z,14.88
2022-09-23T15:13:18.010Z,14.88
2022-09-23T15:15:45.296Z,14.88
2022-09-23T15:18:23.217Z,14.92
2022-09-23T15:20:52.460Z,14.90
2022-09-23T15:23:52.720Z,14.90
2022-09-23T15:26:25.640Z,14.90
2022-09-23T15:28:56.087Z,14.90
2022-09-23T15:31:24.146Z,14.90
2022-09-23T15:33:51.448Z,14.89
2022-09-23T15:36:24.594Z,14.87
2022-09-23T15:38:51.954Z,14.86
2022-09-23T15:41:19.033Z,14.84
2022-09-23T15:43:45.914Z,14.80
2022-09-23T15:46:21.895Z,14.81
2022-09-23T15:49:05.294Z,14.78
2022-09-23T15:51:32.309Z,14.78
2022-09-23T15:53:59.055Z,14.77
2022-09-23T15:56:25.944Z,14.77
2022-09-23T15:58:52.843Z,14.76
2022-09-23T16:01:28.256Z,14.73
2022-09-23T16:03:55.247Z,14.72
2022-09-23T16:06:22.348Z,14.70
2022-09-23T16:08:49.219Z,14.67
2022-09-23T16:11:22.151Z,14.63
2022-09-23T16:13:48.901Z,14.56
2022-09-23T16:16:15.911Z,14.53
2022-09-23T16:18:43.041Z,14.51
2022-09-23T16:21:12.961Z,14.45
2022-09-23T16:23:43.741Z,14.40
2022-09-23T16:26:10.495Z,14.36
2022-09-23T16:28:37.293Z,14.33
2022-09-23T16:31:04.284Z,14.30
2022-09-23T16:33:31.113Z,14.26
2022-09-23T16:35:58.796Z,14.22
2022-09-23T16:38:25.465Z,14.17
2022-09-23T16:40:52.475Z,14.13
2022-09-23T16:43:19.177Z,14.10
2022-09-23T16:45:45.992Z,14.03
2022-09-23T16:48:12.865Z,14.02
2022-09-23T16:50:39.573Z,13.98
2022-09-23T16:53:06.406Z,13.93
2022-09-23T16:55:33.121Z,13.87
2022-09-23T16:57:59.834Z,13.84
2022-09-23T17:00:26.709Z,13.81
2022-09-23T17:02:53.486Z,13.76
2022-09-23T17:05:20.295Z,13.74
2022-09-23T17:07:46.977Z,13.63
2022-09-23T17:10:13.777Z,13.63
2022-09-23T17:12:40.596Z,13.51
2022-09-23T17:15:08.598Z,13.49
2022-09-23T17:17:36.377Z,13.47
2022-09-23T17:20:05.375Z,13.41
2022-09-23T17:22:34.637Z,13.27
2022-09-23T17:25:01.952Z,13.26
2022-09-23T17:27:28.684Z,13.16
2022-09-23T17:29:55.638Z,13.06
2022-09-23T17:32:22.341Z,12.88
2022-09-23T17:34:49.259Z,12.74
2022-09-23T17:37:16.066Z,12.80
2022-09-23T17:39:43.009Z,12.72
2022-09-23T17:42:09.829Z,12.69
2022-09-23T17:44:36.558Z,12.61
2022-09-23T17:47:03.421Z,12.53
2022-09-23T17:49:30.182Z,12.39
2022-09-23T17:51:56.941Z,12.41
2022-09-23T17:54:23.712Z,12.43
2022-09-23T17:56:50.502Z,12.39
2022-09-23T17:59:17.268Z,12.34
2022-09-23T18:01:44.236Z,12.49
2022-09-23T18:04:11.072Z,12.44
2022-09-23T18:06:38.024Z,12.28
2022-09-23T18:09:06.991Z,12.04
2022-09-23T18:11:36.551Z,12.16
2022-09-23T18:14:05.747Z,12.01
2022-09-23T18:16:37.842Z,11.86
2022-09-23T18:19:05.105Z,11.77
2022-09-23T18:21:34.476Z,11.74
2022-09-23T18:26:48.740Z,11.59
2022-09-23T18:29:16.060Z,11.60
2022-09-23T18:31:43.652Z,11.86
2022-09-23T18:34:13.155Z,11.77
2022-09-23T18:36:40.266Z,11.60
2022-09-23T18:39:07.077Z,11.67
2022-09-23T18:41:34.985Z,11.44
2022-09-23T18:44:02.866Z,11.49
2022-09-23T18:46:31.147Z,11.29
2022-09-23T18:48:59.291Z,11.25
2022-09-23T18:51:26.979Z,11.08
2022-09-23T18:53:54.020Z,11.19
2022-09-23T18:56:20.758Z,11.11
2022-09-23T18:58:49.239Z,11.20
2022-09-23T19:01:16.664Z,11.17
2022-09-23T19:03:43.768Z,10.98
2022-09-23T19:06:14.338Z,10.97
2022-09-23T19:08:44.675Z,10.98
2022-09-23T19:11:13.384Z,10.78
2022-09-23T19:13:40.974Z,10.74
2022-09-23T19:16:10.921Z,10.66
2022-09-23T19:18:39.722Z,10.76
2022-09-23T19:21:11.884Z,10.54
2022-09-23T19:23:40.140Z,10.62
2022-09-23T19:26:09.866Z,10.64
2022-09-23T19:28:37.693Z,10.73
2022-09-23T19:31:12.847Z,10.67
2022-09-23T19:33:39.714Z,10.58
2022-09-23T19:36:06.935Z,10.55
2022-09-23T19:38:33.704Z,10.72
2022-09-23T19:41:05.266Z,10.47
2022-09-23T19:43:32.264Z,10.28
2022-09-23T19:45:59.064Z,10.23
2022-09-23T19:48:25.815Z,10.18
2022-09-23T19:50:52.654Z,10.12
2022-09-23T19:53:19.635Z,10.28
2022-09-23T19:55:46.610Z,10.12
2022-09-23T19:58:13.424Z,10.25
2022-09-23T20:00:40.815Z,10.28
2022-09-23T20:03:09.158Z,10.30
2022-09-23T20:05:35.947Z,10.23
2022-09-23T20:08:05.378Z,10.21
2022-09-23T20:10:33.066Z,9.92
2022-09-23T20:12:59.919Z,9.89
2022-09-23T20:15:26.676Z,10.00
2022-09-23T20:17:53.486Z,9.96
2022-09-23T20:20:20.576Z,10.14
2022-09-23T20:22:47.350Z,10.18
2022-09-23T20:25:14.240Z,9.95
2022-09-23T20:27:40.983Z,9.92
2022-09-23T20:30:08.360Z,9.72
2022-09-23T20:32:35.245Z,9.74
2022-09-23T20:35:02.038Z,9.81
2022-09-23T20:37:28.859Z,9.64
2022-09-23T20:39:55.837Z,9.59
2022-09-23T20:42:22.622Z,9.38
2022-09-23T20:44:49.888Z,9.47
2022-09-23T20:47:17.970Z,9.34
2022-09-23T20:49:46.047Z,9.23
2022-09-23T20:52:17.610Z,9.30
2022-09-23T20:54:44.403Z,9.03
2022-09-23T20:57:12.928Z,9.28
2022-09-23T20:59:40.396Z,9.42
2022-09-23T21:02:08.342Z,9.07
2022-09-23T21:04:35.119Z,9.08
2022-09-23T21:07:02.269Z,9.09
2022-09-23T21:09:29.900Z,8.95
2022-09-23T21:11:57.360Z,9.04
2022-09-23T21:14:24.211Z,9.10
2022-09-23T21:16:51.401Z,8.94
2022-09-23T21:19:18.613Z,9.01
2022-09-23T21:21:45.661Z,8.96
2022-09-23T21:24:43.762Z,9.02
2022-09-23T21:26:59.342Z,8.99
2022-09-23T21:29:26.123Z,8.95
2022-09-23T21:31:52.958Z,8.86
2022-09-23T21:34:19.823Z,8.97
2022-09-23T21:36:47.824Z,8.98
2022-09-23T21:39:14.568Z,8.90
2022-09-23T21:41:41.499Z,8.75
2022-09-23T21:44:08.525Z,8.79
2022-09-23T21:46:36.962Z,8.79
2022-09-23T21:49:04.324Z,8.95
2022-09-23T21:51:37.222Z,8.99
2022-09-23T21:54:05.008Z,8.97
2022-09-23T21:56:32.883Z,8.94
2022-09-23T21:58:59.635Z,8.97
2022-09-23T22:01:31.735Z,8.75
2022-09-23T22:04:01.595Z,8.52
2022-09-23T22:06:28.886Z,8.76
2022-09-23T22:09:01.385Z,8.83
2022-09-23T22:11:31.535Z,8.58
2022-09-23T22:14:00.222Z,8.61
2022-09-23T22:16:28.593Z,8.40
2022-09-23T22:18:57.516Z,8.25
2022-09-23T22:21:26.592Z,8.28
2022-09-23T22:23:55.247Z,8.34
2022-09-23T22:26:22.028Z,8.20
2022-09-23T22:28:48.946Z,8.42
2022-09-23T22:31:15.992Z,8.50
2022-09-23T22:33:42.812Z,8.53
2022-09-23T22:36:09.543Z,8.25
2022-09-23T22:38:36.311Z,8.32
2022-09-23T22:41:03.444Z,8.26
2022-09-23T22:43:33.231Z,8.23
2022-09-23T22:45:59.994Z,8.10
2022-09-23T22:48:26.696Z,8.01
2022-09-23T22:50:53.660Z,8.14
2022-09-23T22:53:20.389Z,8.20
2022-09-23T22:55:57.739Z,8.33
2022-09-23T22:58:32.203Z,8.14
2022-09-23T23:00:59.750Z,8.03
2022-09-23T23:03:26.654Z,8.18
2022-09-23T23:05:54.135Z,8.22
2022-09-23T23:08:21.301Z,8.25
2022-09-23T23:10:48.089Z,7.97
2022-09-23T23:13:14.921Z,7.76
2022-09-23T23:15:41.754Z,7.99
2022-09-23T23:18:08.719Z,7.71
2022-09-23T23:20:35.525Z,7.61
2022-09-23T23:23:02.419Z,7.64
2022-09-23T23:25:29.680Z,7.59
2022-09-23T23:27:56.720Z,7.52
2022-09-23T23:30:24.182Z,7.80
2022-09-23T23:32:51.008Z,7.88
2022-09-23T23:35:17.794Z,7.56
2022-09-23T23:37:44.613Z,7.51
2022-09-23T23:40:11.444Z,7.40
2022-09-23T23:42:38.268Z,7.46
2022-09-23T23:45:05.592Z,7.33
2022-09-23T23:47:32.452Z,7.34
2022-09-23T23:49:59.272Z,7.34
2022-09-23T23:52:26.064Z,7.31
2022-09-23T23:54:52.794Z,7.29
2022-09-23T23:57:19.565Z,7.27
2022-09-23T23:59:46.313Z,7.31
